Overview Statistics Trail Chart Weather Telemetry Raw packets
 

This is the latest recevied weather packets stored in our database for station/object K5IDL. If no packets are shown the sender has not sent any weather packets the latest 10 day(s).

<< 1 2 3 4 5 >>
Time Temp. Humidity Pressure Rain* Wind** Luminosity Snow
1788714015 36.11° C 50% 1015.9 hPa 0 mm - 597 W/m² -
1788713712 35° C 51% 1016 hPa 0 mm - 591 W/m² -
1788713407 35° C 52% 1016 hPa 0 mm - 585 W/m² -
1788713106 34.44° C 54% 1015.8 hPa 0 mm - 578 W/m² -
1788712802 33.89° C 54% 1015.9 hPa 0 mm - 567 W/m² -
1788712497 34.44° C 51% 1015.9 hPa 0 mm - 558 W/m² -
1788712196 35.56° C 52% 1015.9 hPa 0 mm - 550 W/m² -
1788711894 35° C 50% 1015.8 hPa 0 mm - 541 W/m² -
1788711589 33.89° C 55% 1015.9 hPa 0 mm - 524 W/m² -
1788711290 33.89° C 54% 1015.8 hPa 0 mm - 520 W/m² -
1788710989 33.89° C 56% 1015.7 hPa 0 mm - 509 W/m² -
1788710682 34.44° C 54% 1015.8 hPa 0 mm - 494 W/m² -
1788710381 35° C 53% 1015.8 hPa 0 mm - 481 W/m² -
1788710079 33.33° C 58% 1015.7 hPa 0 mm - 467 W/m² -
1788709776 33.33° C 56% 1015.6 hPa 0 mm - 455 W/m² -
1788709471 33.33° C 59% 1015.6 hPa 0 mm - 443 W/m² -
1788709170 34.44° C 56% 1015.8 hPa 0 mm - 430 W/m² -
1788708868 34.44° C 58% 1015.7 hPa 0 mm - 417 W/m² -
1788708563 33.89° C 62% 1015.7 hPa 0 mm - 401 W/m² -
1788708258 32.78° C 64% 1015.6 hPa 0 mm - 392 W/m² -
1788707957 32.78° C 65% 1015.7 hPa 0 mm - 372 W/m² -
1788707653 32.78° C 64% 1015.6 hPa 0 mm - 357 W/m² -
1788707349 33.33° C 65% 1015.4 hPa 0 mm - 344 W/m² -
1788707044 33.89° C 63% 1015.4 hPa 0 mm - 327 W/m² -
1788706743 32.22° C 66% 1015.4 hPa 0 mm - 313 W/m² -

* Rain latest hour (hover to see other rain measurements)
** Current wind speed in m/s (hover to see current wind gust speed)